Port Gibson, Mississippi
Current Conditions -  °F | °C
As of 7:35 AM on Sunday 23 Nov 2014 (Local Time) from KVKS Reporting Station
Broken Clouds Broken Clouds  
Wind Chill: 63°   Ceiling: 800
Heat Index: 63°   Visibility: 7mi
Dew Point: 61°   Wind: 12mph
Humidity: 94%   Direction: 120°ESE
Pressure: 29.63"   Gusts: NA
Location:  31.96°N, 90.98°W
Report Text: KVKS 231335Z AUTO 12010KT 7SM BKN008 BKN042 BKN060 17/16 A2963 RMK A01
Loading
Personal Weather Stations






























Interactive Weather Map New forecast layout! Learn more

10-Day Weather Forecast

Advertisements
Track Severe Weather on mobile